*** (BERICHT 03/08/2018): De Humidexwaarde staat fout bij de 'steelseries' op onze site. Op de startpagina staat de juiste Humidexwaarde weergegeven. Deze waarde wordt berekent in combinatie met temperatuur & relatieve vochtigheid.***

CBI


Doneren

Weerstation Zoersel Live Webcam meer informatie Weerstation Zoersel Live Webcam


onweer radar meer informatie blitzortung!


regen radar  rain snow radar


Het weer levert geen direct gevaar op.    Er zijn geen waarschuwingen afgegeven.

metar rapporten vliegvelden

   
EBAW - Antwerp
gewijzigd: 17-08-2018 08:20
licht bewolkt  
licht bewolkt  
   wind: wzw 7,4 km/h
wind: wzw 7,4 km/h
temperatuur: 16°C
dauwpunt: 15°C
vochtigheid: 94%
barometer: 1017 hPa
bewolking: licht bewolkt
zicht: meer dan 10 km
bewolking: licht bewolkt 1500 ft
EBAW 170620Z 24004KT 210V270 9999 FEW015 16/15 Q1017 NOSIG
EBLG - Li├Ęge
gewijzigd: 17-08-2018 08:50
grotendeels bewolkt  
grotendeels bewolkt  
   wind: nw 7,4 km/h
wind: nw 7,4 km/h
temperatuur: 15°C
dauwpunt: 15°C
vochtigheid: 100%
barometer: 1018 hPa
bewolking: grotendeels bewolkt
zicht: meer dan 10 km
bewolking: licht bewolkt 400 ft,
grotendeels bewolkt 1000 ft
EBLG 170650Z 32004KT 300V020 9999 FEW004 BKN010 15/15 Q1018 NOSIG
EBCV - Mons/Bergen
gewijzigd: 17-08-2018 08:25
grotendeels bewolkt  
grotendeels bewolkt  
   wind: wnw 9,3 km/h
wind: wnw 9,3 km/h
temperatuur: 15°C
dauwpunt: 14°C
vochtigheid: 94%
barometer: 1018 hPa
bewolking: grotendeels bewolkt
zicht: meer dan 10 km
bewolking: grotendeels bewolkt 20000 ft
EBCV 170625Z AUTO 30005KT 9999 BKN200/// 15/14 Q1018 BLU
EHBK - Maastricht
gewijzigd: 17-08-2018 08:55
grotendeels bewolkt  
grotendeels bewolkt  
   wind: wnw 7,4 km/h
wind: wnw 7,4 km/h
temperatuur: 16°C
dauwpunt: 16°C
vochtigheid: 100%
barometer: 1017 hPa
bewolking: grotendeels bewolkt
zicht: meer dan 10 km
bewolking: licht bewolkt 300 ft,
gedeeltelijk bewolkt 700 ft,
grotendeels bewolkt 1000 ft
EHBK 170655Z AUTO 30004KT 220V340 9999 FEW003 SCT007 BKN010 16/16 Q1017 BECMG BKN018
ELLX - Luxemburg
gewijzigd: 17-08-2018 08:50
nevel, gedeeltelijk bewolkt  
nevel, gedeeltelijk bewolkt  
   wind: nno 31,5 km/h
wind: nno 31,5 km/h
temperatuur: 18°C
dauwpunt: 14°C
vochtigheid: 78%
barometer: 1016 hPa
bewolking: gedeeltelijk bewolkt
zicht: 4 km
bewolking: licht bewolkt 1200 ft,
gedeeltelijk bewolkt 7000 ft
ELLX 170650Z 02017KT 4000 BR FEW012 SCT070 18/14 Q1016 NOSIG
EBOS - Oostende
gewijzigd: 17-08-2018 08:50
helder  
helder  
   wind: nnw 11,1 km/h
wind: nnw 11,1 km/h
temperatuur: 19°C
dauwpunt: 12°C
vochtigheid: 64%
barometer: 1018 hPa
zicht: meer dan 10 km
bewolking: helder
EBOS 170650Z 34006KT CAVOK 19/12 Q1018 NOSIG

script ontwikkeld door  Saratoga-weather.org aangepast voor de template door  Weerstation Leuven